createdAt,value
2018-03-25T00:01:50.620Z,8.38
2018-03-25T00:04:18.240Z,7.93
2018-03-25T00:06:45.895Z,9.40
2018-03-25T00:09:13.542Z,8.52
2018-03-25T00:11:41.194Z,8.57
2018-03-25T00:14:09.639Z,8.10
2018-03-25T00:16:37.266Z,8.13
2018-03-25T00:19:04.904Z,8.33
2018-03-25T00:21:33.501Z,8.60
2018-03-25T00:24:02.806Z,8.95
2018-03-25T00:26:31.192Z,8.57
2018-03-25T00:28:59.585Z,8.60
2018-03-25T00:31:27.221Z,8.27
2018-03-25T00:33:54.864Z,8.63
2018-03-25T00:36:22.569Z,8.73
2018-03-25T00:38:50.224Z,8.25
2018-03-25T00:41:17.887Z,8.82
2018-03-25T00:43:45.495Z,9.10
2018-03-25T00:46:13.185Z,8.30
2018-03-25T00:48:40.877Z,8.68
2018-03-25T00:51:08.535Z,9.40
2018-03-25T00:53:36.215Z,8.38
2018-03-25T00:56:04.742Z,8.77
2018-03-25T00:58:32.368Z,8.60
2018-03-25T01:00:59.986Z,8.90
2018-03-25T01:03:27.686Z,9.68
2018-03-25T01:05:55.289Z,9.13
2018-03-25T01:08:23.666Z,9.67
2018-03-25T01:10:51.327Z,10.48
2018-03-25T01:13:18.994Z,9.65
2018-03-25T01:15:58.584Z,9.52
2018-03-25T01:18:26.221Z,9.35
2018-03-25T01:20:54.671Z,9.82
2018-03-25T01:23:22.333Z,9.30
2018-03-25T01:25:49.931Z,9.85
2018-03-25T01:28:17.891Z,9.23
2018-03-25T01:30:45.470Z,9.13
2018-03-25T01:33:13.081Z,10.15
2018-03-25T01:35:41.026Z,9.52
2018-03-25T01:38:08.638Z,9.43
2018-03-25T01:40:36.294Z,9.05
2018-03-25T01:43:03.936Z,8.70
2018-03-25T01:45:31.823Z,9.32
2018-03-25T01:48:00.302Z,9.13
2018-03-25T01:50:27.978Z,9.82
2018-03-25T01:52:55.605Z,9.00
2018-03-25T01:55:24.603Z,10.02
2018-03-25T01:57:52.228Z,9.70
2018-03-25T02:00:19.856Z,9.23
2018-03-25T02:02:47.489Z,8.73
2018-03-25T02:05:15.097Z,9.30
2018-03-25T02:07:42.758Z,9.95
2018-03-25T02:10:10.391Z,9.90
2018-03-25T02:12:38.789Z,9.88
2018-03-25T02:15:06.423Z,9.07
2018-03-25T02:17:34.820Z,9.70
2018-03-25T02:20:02.466Z,9.32
2018-03-25T02:22:30.106Z,9.63
2018-03-25T02:24:57.770Z,9.70
2018-03-25T02:27:25.538Z,10.00
2018-03-25T02:29:53.187Z,9.60
2018-03-25T02:32:20.854Z,11.10
2018-03-25T02:34:48.513Z,11.12
2018-03-25T02:37:16.146Z,10.88
2018-03-25T02:39:43.776Z,10.57
2018-03-25T02:42:11.427Z,10.27
2018-03-25T02:44:39.088Z,11.38
2018-03-25T02:47:06.750Z,10.93
2018-03-25T02:49:34.382Z,10.57
2018-03-25T02:52:02.041Z,10.88
2018-03-25T02:54:29.706Z,10.75
2018-03-25T02:56:57.393Z,10.80
2018-03-25T02:59:25.103Z,9.73
2018-03-25T03:01:52.718Z,10.02
2018-03-25T03:04:21.121Z,10.75
2018-03-25T03:06:49.547Z,9.07
2018-03-25T03:09:17.169Z,9.75
2018-03-25T03:11:45.695Z,8.82
2018-03-25T03:14:13.280Z,9.10
2018-03-25T03:16:40.909Z,8.53
2018-03-25T03:19:08.502Z,8.53
2018-03-25T03:21:36.165Z,9.03
2018-03-25T03:24:03.803Z,8.87
2018-03-25T03:26:32.245Z,8.93
2018-03-25T03:28:59.870Z,9.77
2018-03-25T03:31:27.497Z,8.68
2018-03-25T03:33:55.918Z,8.65
2018-03-25T03:36:23.571Z,7.82
2018-03-25T03:38:51.195Z,8.35
2018-03-25T03:41:19.065Z,8.50
2018-03-25T03:43:46.689Z,9.18
2018-03-25T03:46:14.339Z,8.43
2018-03-25T03:48:41.942Z,8.35
2018-03-25T03:51:09.601Z,8.05
2018-03-25T03:53:37.213Z,8.55
2018-03-25T03:56:05.630Z,9.00
2018-03-25T03:58:33.299Z,8.77
2018-03-25T04:01:01.239Z,8.77
2018-03-25T04:03:28.892Z,8.98
2018-03-25T04:05:56.527Z,8.80
2018-03-25T04:08:24.369Z,8.05
2018-03-25T04:10:52.018Z,8.50
2018-03-25T04:13:20.441Z,8.77
2018-03-25T04:15:48.061Z,8.27
2018-03-25T04:18:16.453Z,8.38
2018-03-25T04:20:44.849Z,8.77
2018-03-25T04:23:12.486Z,8.50
2018-03-25T04:25:40.130Z,8.13
2018-03-25T04:28:07.791Z,9.17
2018-03-25T04:30:35.390Z,7.97
2018-03-25T04:33:03.948Z,7.80
2018-03-25T04:35:31.613Z,8.05
2018-03-25T04:37:59.204Z,8.88
2018-03-25T04:40:26.835Z,8.20
2018-03-25T04:42:54.430Z,8.65
2018-03-25T04:45:22.862Z,8.90
2018-03-25T04:47:50.494Z,8.02
2018-03-25T04:50:18.927Z,7.72
2018-03-25T04:52:46.601Z,8.02
2018-03-25T04:55:14.245Z,7.28
2018-03-25T04:57:41.865Z,7.75
2018-03-25T05:00:09.557Z,7.80
2018-03-25T05:02:37.987Z,7.30
2018-03-25T05:05:05.880Z,7.03
2018-03-25T05:07:33.819Z,7.05
2018-03-25T05:10:01.540Z,7.72
2018-03-25T05:12:29.170Z,7.47
2018-03-25T05:14:57.272Z,7.75
2018-03-25T05:17:25.269Z,7.32
2018-03-25T05:19:53.705Z,7.37
2018-03-25T05:22:21.333Z,7.85
2018-03-25T05:24:49.745Z,7.72
2018-03-25T05:27:17.428Z,7.32
2018-03-25T05:29:45.092Z,7.70
2018-03-25T05:32:12.713Z,7.62
2018-03-25T05:34:41.544Z,7.78
2018-03-25T05:37:09.204Z,7.60
2018-03-25T05:39:36.838Z,7.53
2018-03-25T05:42:06.286Z,8.50
2018-03-25T05:44:33.951Z,8.23
2018-03-25T05:47:01.619Z,7.90
2018-03-25T05:49:29.228Z,7.87
2018-03-25T05:51:57.653Z,8.60
2018-03-25T05:54:25.354Z,8.52
2018-03-25T05:56:53.038Z,8.68
2018-03-25T05:59:20.652Z,7.18
2018-03-25T06:01:48.305Z,7.72
2018-03-25T06:04:16.674Z,7.75
2018-03-25T06:06:45.114Z,7.60
2018-03-25T06:09:13.104Z,7.87
2018-03-25T06:11:41.014Z,7.87
2018-03-25T06:14:09.390Z,7.73
2018-03-25T06:16:37.780Z,7.82
2018-03-25T06:19:06.230Z,8.63
2018-03-25T06:21:33.852Z,8.60
2018-03-25T06:24:01.480Z,8.48
2018-03-25T06:26:29.519Z,8.23
2018-03-25T06:28:57.441Z,7.90
2018-03-25T06:31:25.259Z,8.85
2018-03-25T06:33:52.900Z,8.73
2018-03-25T06:36:20.573Z,8.77
2018-03-25T06:38:48.237Z,8.40
2018-03-25T06:41:16.883Z,8.10
2018-03-25T06:43:44.542Z,8.43
2018-03-25T06:46:13.252Z,8.27
2018-03-25T06:48:41.755Z,8.00
2018-03-25T06:51:09.380Z,8.20
2018-03-25T06:53:37.355Z,8.32
2018-03-25T06:56:05.840Z,8.73
2018-03-25T06:58:34.333Z,8.15
2018-03-25T07:01:02.765Z,8.57
2018-03-25T07:03:30.441Z,9.50
2018-03-25T07:05:58.055Z,9.05
2018-03-25T07:08:25.711Z,9.43
2018-03-25T07:10:53.394Z,9.18
2018-03-25T07:13:21.835Z,8.63
2018-03-25T07:15:49.497Z,9.50
2018-03-25T07:18:17.139Z,10.10
2018-03-25T07:20:45.585Z,9.50
2018-03-25T07:23:13.411Z,10.10
2018-03-25T07:25:41.110Z,10.60
2018-03-25T07:28:08.745Z,10.10
2018-03-25T07:30:36.386Z,10.13
2018-03-25T07:33:05.553Z,10.43
2018-03-25T07:35:33.994Z,9.77
2018-03-25T07:38:01.658Z,10.48
2018-03-25T07:40:29.441Z,11.63
2018-03-25T07:42:57.090Z,11.07
2018-03-25T07:45:24.783Z,11.02
2018-03-25T07:47:52.477Z,10.95
2018-03-25T07:50:20.105Z,10.60
2018-03-25T07:52:48.106Z,11.53
2018-03-25T07:55:15.734Z,11.70
2018-03-25T07:57:43.342Z,10.83
2018-03-25T08:00:11.019Z,11.25
2018-03-25T08:02:38.758Z,11.00
2018-03-25T08:05:06.413Z,10.90
2018-03-25T08:07:34.087Z,11.20
2018-03-25T08:10:01.734Z,10.73
2018-03-25T08:12:29.410Z,11.63
2018-03-25T08:14:57.067Z,10.87
2018-03-25T08:17:25.490Z,10.23
2018-03-25T08:19:53.173Z,10.55
2018-03-25T08:22:20.864Z,10.65
2018-03-25T08:24:49.315Z,11.10
2018-03-25T08:27:17.057Z,10.98
2018-03-25T08:29:44.743Z,11.30
2018-03-25T08:32:14.040Z,10.20
2018-03-25T08:34:41.690Z,9.88
2018-03-25T08:37:09.400Z,10.35
2018-03-25T08:39:37.050Z,9.85
2018-03-25T08:42:05.696Z,10.53
2018-03-25T08:44:33.376Z,10.93
2018-03-25T08:47:01.038Z,9.93
2018-03-25T08:49:28.737Z,10.63
2018-03-25T08:51:56.385Z,9.63
2018-03-25T08:54:23.994Z,10.00
2018-03-25T08:56:51.648Z,10.25
2018-03-25T08:59:19.292Z,9.65
2018-03-25T09:01:47.516Z,9.57
2018-03-25T09:04:15.153Z,10.40
2018-03-25T09:06:43.612Z,9.82
2018-03-25T09:09:11.949Z,9.97
2018-03-25T09:11:39.831Z,9.70
2018-03-25T09:14:07.435Z,9.73
2018-03-25T09:16:35.051Z,10.32
2018-03-25T09:19:02.784Z,10.25
2018-03-25T09:21:30.412Z,9.90
2018-03-25T09:23:58.075Z,10.18
2018-03-25T09:26:26.420Z,9.88
2018-03-25T09:28:54.841Z,9.82
2018-03-25T09:31:23.223Z,10.13
2018-03-25T09:33:51.590Z,10.20
2018-03-25T09:36:20.008Z,10.27
2018-03-25T09:38:47.653Z,9.87
2018-03-25T09:41:16.068Z,9.88
2018-03-25T09:43:43.683Z,10.07
2018-03-25T09:46:11.313Z,11.00
2018-03-25T09:48:38.968Z,10.50
2018-03-25T09:51:06.654Z,10.55
2018-03-25T09:53:34.367Z,10.52
2018-03-25T09:56:02.040Z,10.48
2018-03-25T09:58:30.476Z,11.32
2018-03-25T10:01:03.791Z,10.93
2018-03-25T10:03:32.327Z,10.23
2018-03-25T10:06:00.015Z,10.43
2018-03-25T10:08:27.668Z,9.90
2018-03-25T10:10:55.292Z,10.45
2018-03-25T10:13:22.976Z,10.75
2018-03-25T10:15:51.424Z,11.43
2018-03-25T10:18:19.175Z,11.23
2018-03-25T10:20:46.850Z,10.73
2018-03-25T10:23:14.488Z,11.70
2018-03-25T10:25:42.192Z,10.55
2018-03-25T10:28:09.877Z,10.80
2018-03-25T10:30:37.519Z,11.00
2018-03-25T10:33:05.161Z,11.17
2018-03-25T10:35:32.821Z,11.12
2018-03-25T10:38:01.714Z,10.77
2018-03-25T10:40:29.522Z,11.18
2018-03-25T10:42:57.957Z,10.77
2018-03-25T10:45:26.384Z,11.10
2018-03-25T10:47:54.077Z,11.55
2018-03-25T10:50:21.768Z,11.30
2018-03-25T10:52:50.224Z,10.98
2018-03-25T10:55:17.913Z,11.25
2018-03-25T10:57:46.342Z,11.35
2018-03-25T11:00:14.213Z,11.10
2018-03-25T11:02:41.891Z,10.90
2018-03-25T11:05:09.505Z,10.53
2018-03-25T11:07:37.119Z,10.57
2018-03-25T11:10:04.729Z,10.43
2018-03-25T11:12:32.338Z,10.10
2018-03-25T11:14:59.970Z,10.07
2018-03-25T11:17:27.577Z,10.53
2018-03-25T11:19:55.191Z,9.70
2018-03-25T11:22:22.829Z,9.45
2018-03-25T11:24:50.445Z,10.07
2018-03-25T11:27:18.819Z,9.88
2018-03-25T11:29:47.252Z,9.85
2018-03-25T11:32:14.880Z,9.27
2018-03-25T11:34:43.316Z,9.38
2018-03-25T11:37:12.053Z,9.40
2018-03-25T11:39:41.061Z,9.02
2018-03-25T11:42:08.723Z,9.20
2018-03-25T11:44:37.120Z,9.40
2018-03-25T11:47:05.108Z,9.10
2018-03-25T11:49:33.323Z,9.60
2018-03-25T11:52:01.809Z,9.53
2018-03-25T11:54:29.438Z,8.63
2018-03-25T11:56:57.336Z,9.73
2018-03-25T11:59:25.004Z,9.80
2018-03-25T12:01:52.637Z,9.55
2018-03-25T12:04:20.296Z,8.93
2018-03-25T12:06:47.933Z,8.98
2018-03-25T12:09:16.396Z,8.85
2018-03-25T12:11:44.056Z,9.00
2018-03-25T12:14:11.787Z,8.83
2018-03-25T12:16:39.406Z,9.00
2018-03-25T12:19:07.063Z,9.18
2018-03-25T12:21:34.707Z,8.87
2018-03-25T12:24:02.581Z,8.13
2018-03-25T12:26:30.246Z,8.97
2018-03-25T12:28:57.954Z,8.48
2018-03-25T12:31:26.375Z,8.52
2018-03-25T12:33:54.029Z,8.88
2018-03-25T12:36:22.409Z,8.23
2018-03-25T12:38:50.870Z,8.60
2018-03-25T12:41:18.574Z,8.48
2018-03-25T12:43:46.217Z,8.85
2018-03-25T12:46:14.620Z,8.43
2018-03-25T12:48:42.278Z,7.80
2018-03-25T12:51:10.626Z,7.90
2018-03-25T12:53:38.402Z,8.02
2018-03-25T12:56:06.827Z,7.50
2018-03-25T12:58:34.492Z,7.70
2018-03-25T13:01:02.292Z,8.45
2018-03-25T13:03:29.931Z,8.83
2018-03-25T13:05:57.650Z,8.70
2018-03-25T13:08:25.280Z,9.02
2018-03-25T13:10:52.941Z,9.00
2018-03-25T13:13:20.572Z,9.10
2018-03-25T13:15:48.955Z,9.68
2018-03-25T13:18:17.396Z,9.05
2018-03-25T13:20:45.095Z,9.30
2018-03-25T13:23:12.719Z,9.33
2018-03-25T13:25:40.390Z,9.40
2018-03-25T13:28:08.035Z,8.50
2018-03-25T13:30:35.691Z,9.57
2018-03-25T13:33:03.387Z,9.73
2018-03-25T13:35:31.905Z,9.43
2018-03-25T13:37:59.985Z,8.98
2018-03-25T13:40:27.674Z,9.02
2018-03-25T13:42:55.295Z,9.63
2018-03-25T13:45:22.963Z,9.23
2018-03-25T13:47:51.411Z,9.40
2018-03-25T13:50:19.020Z,9.38
2018-03-25T13:52:48.812Z,8.90
2018-03-25T13:55:16.490Z,9.35
2018-03-25T13:57:44.158Z,9.32
2018-03-25T14:00:12.552Z,9.10
2018-03-25T14:02:40.995Z,9.27
2018-03-25T14:05:08.930Z,9.33
2018-03-25T14:07:37.333Z,8.85
2018-03-25T14:10:04.992Z,9.18
2018-03-25T14:12:32.622Z,9.33
2018-03-25T14:15:00.290Z,9.40
2018-03-25T14:17:27.897Z,8.73
2018-03-25T14:19:55.501Z,9.03
2018-03-25T14:22:23.186Z,8.68
2018-03-25T14:24:50.918Z,9.10
2018-03-25T14:27:18.537Z,8.57
2018-03-25T14:29:46.192Z,8.73
2018-03-25T14:32:13.850Z,8.97
2018-03-25T14:34:41.485Z,9.10
2018-03-25T14:37:09.127Z,9.00
2018-03-25T14:39:37.511Z,9.03
2018-03-25T14:42:05.287Z,8.83
2018-03-25T14:44:32.973Z,10.15
2018-03-25T14:47:00.659Z,9.83
2018-03-25T14:49:28.304Z,9.80
2018-03-25T14:51:55.988Z,10.10
2018-03-25T14:54:23.746Z,9.38
2018-03-25T14:56:51.456Z,10.07
2018-03-25T14:59:20.856Z,10.10
2018-03-25T15:01:48.496Z,9.65
2018-03-25T15:04:16.180Z,9.35
2018-03-25T15:06:43.850Z,9.50
2018-03-25T15:09:11.507Z,10.20
2018-03-25T15:11:39.937Z,9.25
2018-03-25T15:14:08.320Z,9.98
2018-03-25T15:16:43.792Z,9.27
2018-03-25T15:19:12.544Z,9.63
2018-03-25T15:21:41.004Z,9.57
2018-03-25T15:24:08.651Z,10.30
2018-03-25T15:26:36.647Z,9.30
2018-03-25T15:29:05.426Z,10.10
2018-03-25T15:31:33.237Z,9.90
2018-03-25T15:34:01.651Z,9.65
2018-03-25T15:36:29.330Z,9.80
2018-03-25T15:38:57.058Z,10.20
2018-03-25T15:41:25.435Z,9.90
2018-03-25T15:43:54.825Z,10.15
2018-03-25T15:46:23.894Z,9.83
2018-03-25T15:48:51.572Z,9.45
2018-03-25T15:51:19.355Z,10.60
2018-03-25T15:53:47.001Z,9.77
2018-03-25T15:56:16.336Z,9.20
2018-03-25T15:58:44.123Z,9.77
2018-03-25T16:01:12.628Z,9.57
2018-03-25T16:03:40.304Z,9.57
2018-03-25T16:06:08.858Z,9.50
2018-03-25T16:08:37.327Z,9.90
2018-03-25T16:11:04.996Z,9.13
2018-03-25T16:13:32.639Z,9.93
2018-03-25T16:16:00.298Z,10.48
2018-03-25T16:18:28.734Z,9.35
2018-03-25T16:20:57.125Z,9.40
2018-03-25T16:23:25.528Z,10.15
2018-03-25T16:25:53.213Z,10.30
2018-03-25T16:28:20.919Z,10.15
2018-03-25T16:30:49.343Z,10.20
2018-03-25T16:33:17.878Z,10.15
2018-03-25T16:35:45.536Z,9.98
2018-03-25T16:38:13.204Z,10.73
2018-03-25T16:40:40.879Z,10.35
2018-03-25T16:43:08.492Z,9.27
2018-03-25T16:45:36.172Z,9.60
2018-03-25T16:48:03.830Z,9.48
2018-03-25T16:50:31.500Z,9.48
2018-03-25T16:52:59.217Z,9.57
2018-03-25T16:55:26.842Z,9.23
2018-03-25T16:57:54.496Z,9.32
2018-03-25T17:00:22.196Z,9.27
2018-03-25T17:02:50.064Z,9.55
2018-03-25T17:05:17.706Z,9.32
2018-03-25T17:07:45.362Z,9.43
2018-03-25T17:10:13.730Z,9.45
2018-03-25T17:12:42.161Z,10.00
2018-03-25T17:15:09.805Z,9.85
2018-03-25T17:17:38.205Z,9.00
2018-03-25T17:20:05.844Z,10.52
2018-03-25T17:22:33.469Z,9.43
2018-03-25T17:25:01.155Z,9.32
2018-03-25T17:27:28.812Z,9.50
2018-03-25T17:29:56.558Z,8.97
2018-03-25T17:32:24.236Z,9.95
2018-03-25T17:34:51.869Z,9.85
2018-03-25T17:37:19.485Z,9.38
2018-03-25T17:39:47.169Z,10.20
2018-03-25T17:42:14.870Z,9.18
2018-03-25T17:44:42.762Z,10.70
2018-03-25T17:47:10.451Z,10.67
2018-03-25T17:49:42.788Z,10.63
2018-03-25T17:52:10.691Z,10.30
2018-03-25T17:54:38.330Z,11.27
2018-03-25T17:57:06.400Z,10.77
2018-03-25T17:59:34.032Z,10.65
2018-03-25T18:02:02.446Z,11.15
2018-03-25T18:04:30.510Z,10.95
2018-03-25T18:06:58.177Z,11.10
2018-03-25T18:09:26.109Z,11.30
2018-03-25T18:11:53.770Z,11.68
2018-03-25T18:14:21.389Z,11.38
2018-03-25T18:16:49.028Z,11.32
2018-03-25T18:19:17.459Z,11.20
2018-03-25T18:21:45.100Z,11.68
2018-03-25T18:24:12.858Z,11.57
2018-03-25T18:26:40.592Z,11.80
2018-03-25T18:29:08.290Z,12.18
2018-03-25T18:31:36.666Z,11.65
2018-03-25T18:34:04.361Z,11.75
2018-03-25T18:36:32.034Z,13.07
2018-03-25T18:38:59.673Z,12.07
2018-03-25T18:41:28.051Z,11.77
2018-03-25T18:43:55.715Z,12.13
2018-03-25T18:46:23.350Z,11.60
2018-03-25T18:48:51.041Z,12.35
2018-03-25T18:51:18.653Z,12.70
2018-03-25T18:53:46.979Z,12.43
2018-03-25T18:56:14.704Z,12.50
2018-03-25T18:58:42.381Z,12.68
2018-03-25T19:01:10.815Z,12.90
2018-03-25T19:03:38.659Z,13.10
2018-03-25T19:06:06.339Z,13.00
2018-03-25T19:08:33.977Z,12.67
2018-03-25T19:11:01.656Z,13.65
2018-03-25T19:13:30.185Z,13.82
2018-03-25T19:15:57.851Z,12.88
2018-03-25T19:18:25.566Z,13.82
2018-03-25T19:20:53.240Z,15.05
2018-03-25T19:23:20.908Z,14.30
2018-03-25T19:25:48.645Z,14.20
2018-03-25T19:28:17.047Z,14.23
2018-03-25T19:30:44.853Z,13.57
2018-03-25T19:33:13.152Z,13.35
2018-03-25T19:35:40.847Z,14.52
2018-03-25T19:38:10.064Z,13.93
2018-03-25T19:40:38.716Z,14.82
2018-03-25T19:43:06.327Z,14.93
2018-03-25T19:45:34.944Z,14.40
2018-03-25T19:48:02.602Z,13.62
2018-03-25T19:50:30.274Z,14.35
2018-03-25T19:52:57.995Z,13.32
2018-03-25T19:55:25.693Z,13.10
2018-03-25T19:57:53.381Z,13.13
2018-03-25T20:00:21.703Z,12.40
2018-03-25T20:02:49.435Z,12.37
2018-03-25T20:05:17.105Z,12.93
2018-03-25T20:07:45.338Z,12.60
2018-03-25T20:10:13.741Z,12.57
2018-03-25T20:12:41.468Z,11.73
2018-03-25T20:15:09.864Z,12.13
2018-03-25T20:17:38.296Z,10.98
2018-03-25T20:20:05.907Z,13.18
2018-03-25T20:22:33.568Z,12.50
2018-03-25T20:25:01.247Z,11.77
2018-03-25T20:27:29.690Z,12.30
2018-03-25T20:29:57.350Z,11.55
2018-03-25T20:32:25.911Z,11.77
2018-03-25T20:34:54.415Z,11.67
2018-03-25T20:37:22.085Z,11.63
2018-03-25T20:39:49.814Z,11.40
2018-03-25T20:42:18.260Z,11.32
2018-03-25T20:44:45.908Z,11.73
2018-03-25T20:47:13.526Z,11.93
2018-03-25T20:49:41.945Z,12.37
2018-03-25T20:52:09.682Z,11.53
2018-03-25T20:54:38.223Z,11.65
2018-03-25T20:57:05.877Z,10.90
2018-03-25T20:59:33.562Z,10.90
2018-03-25T21:02:01.444Z,11.20
2018-03-25T21:04:30.787Z,10.60
2018-03-25T21:06:59.348Z,10.10
2018-03-25T21:09:26.974Z,9.80
2018-03-25T21:11:55.053Z,10.43
2018-03-25T21:14:22.761Z,10.63
2018-03-25T21:16:50.423Z,10.10
2018-03-25T21:19:18.135Z,9.15
2018-03-25T21:21:46.571Z,9.63
2018-03-25T21:24:14.228Z,9.88
2018-03-25T21:26:41.863Z,10.32
2018-03-25T21:29:09.531Z,9.82
2018-03-25T21:31:37.161Z,10.73
2018-03-25T21:34:04.797Z,9.95
2018-03-25T21:36:32.454Z,10.57
2018-03-25T21:39:00.127Z,9.73
2018-03-25T21:41:27.767Z,10.25
2018-03-25T21:43:56.170Z,10.25
2018-03-25T21:46:23.825Z,9.85
2018-03-25T21:48:51.508Z,10.07
2018-03-25T21:51:19.150Z,9.73
2018-03-25T21:53:46.938Z,9.18
2018-03-25T21:56:14.578Z,9.30
2018-03-25T21:58:42.218Z,8.93
2018-03-25T22:01:09.859Z,9.80
2018-03-25T22:03:37.504Z,9.20
2018-03-25T22:06:05.140Z,9.50
2018-03-25T22:08:33.559Z,8.75
2018-03-25T22:11:01.232Z,9.93
2018-03-25T22:13:28.895Z,10.05
2018-03-25T22:15:57.083Z,9.25
2018-03-25T22:18:30.581Z,10.07
2018-03-25T22:20:58.214Z,9.10
2018-03-25T22:23:25.841Z,9.97
2018-03-25T22:25:54.271Z,9.25
2018-03-25T22:28:21.947Z,9.57
2018-03-25T22:30:49.605Z,9.77
2018-03-25T22:33:17.285Z,9.90
2018-03-25T22:35:45.473Z,9.63
2018-03-25T22:38:13.115Z,10.70
2018-03-25T22:40:41.028Z,10.15
2018-03-25T22:43:08.682Z,10.13
2018-03-25T22:45:36.277Z,9.68
2018-03-25T22:48:03.985Z,9.65
2018-03-25T22:50:31.660Z,9.75
2018-03-25T22:52:59.309Z,9.70
2018-03-25T22:55:27.726Z,9.68
2018-03-25T22:57:55.395Z,10.05
2018-03-25T23:00:23.145Z,10.03
2018-03-25T23:02:50.804Z,10.52
2018-03-25T23:05:18.481Z,9.73
2018-03-25T23:07:46.145Z,9.63
2018-03-25T23:10:13.816Z,10.43
2018-03-25T23:12:41.434Z,10.17
2018-03-25T23:15:09.102Z,9.98
2018-03-25T23:17:36.710Z,11.02
2018-03-25T23:20:04.385Z,10.02
2018-03-25T23:22:32.035Z,10.70
2018-03-25T23:24:59.645Z,9.85
2018-03-25T23:27:27.308Z,10.13
2018-03-25T23:29:55.015Z,9.43
2018-03-25T23:32:23.452Z,9.90
2018-03-25T23:34:51.223Z,9.85
2018-03-25T23:37:18.883Z,9.88
2018-03-25T23:39:46.654Z,9.85
2018-03-25T23:42:14.321Z,10.32
2018-03-25T23:44:42.099Z,10.27
2018-03-25T23:47:09.763Z,10.40
2018-03-25T23:49:37.922Z,10.68
2018-03-25T23:52:05.593Z,10.32
2018-03-25T23:54:33.258Z,10.33
2018-03-25T23:57:00.900Z,10.52
2018-03-25T23:59:29.301Z,11.02
